createdAt,value
2019-06-15T00:00:05.322Z,972.58
2019-06-15T00:01:05.491Z,972.52
2019-06-15T00:02:05.310Z,972.41
2019-06-15T00:03:04.546Z,972.27
2019-06-15T00:04:04.779Z,972.41
2019-06-15T00:05:04.956Z,972.36
2019-06-15T00:06:05.345Z,972.33
2019-06-15T00:07:05.446Z,972.27
2019-06-15T00:08:05.410Z,972.27
2019-06-15T00:09:05.367Z,972.18
2019-06-15T00:10:05.247Z,972.33
2019-06-15T00:11:04.694Z,972.36
2019-06-15T00:12:05.006Z,972.39
2019-06-15T00:13:05.374Z,972.36
2019-06-15T00:14:05.064Z,972.33
2019-06-15T00:15:04.827Z,972.48
2019-06-15T00:16:05.349Z,972.31
2019-06-15T00:17:04.858Z,972.28
2019-06-15T00:18:04.870Z,972.25
2019-06-15T00:19:04.811Z,972.28
2019-06-15T00:20:05.453Z,972.19
2019-06-15T00:21:05.403Z,972.22
2019-06-15T00:22:05.006Z,971.99
2019-06-15T00:23:05.342Z,972.16
2019-06-15T00:24:05.322Z,972.08
2019-06-15T00:25:05.389Z,972.11
2019-06-15T00:26:04.781Z,972.02
2019-06-15T00:27:05.238Z,971.99
2019-06-15T00:28:05.108Z,971.94
2019-06-15T00:29:04.650Z,971.97
2019-06-15T00:30:05.162Z,971.94
2019-06-15T00:31:04.568Z,971.77
2019-06-15T00:32:04.901Z,971.83
2019-06-15T00:33:05.564Z,971.83
2019-06-15T00:34:04.790Z,971.91
2019-06-15T00:35:05.058Z,971.75
2019-06-15T00:36:05.212Z,971.89
2019-06-15T00:37:05.267Z,971.78
2019-06-15T00:38:05.405Z,971.86
2019-06-15T00:39:04.638Z,971.86
2019-06-15T00:40:04.727Z,971.83
2019-06-15T00:41:05.462Z,971.81
2019-06-15T00:42:04.625Z,971.81
2019-06-15T00:43:05.048Z,971.95
2019-06-15T00:44:10.550Z,971.83
2019-06-15T00:45:05.244Z,971.92
2019-06-15T00:46:05.402Z,971.95
2019-06-15T00:47:04.562Z,972.04
2019-06-15T00:48:05.418Z,971.95
2019-06-15T00:49:05.267Z,971.89
2019-06-15T00:50:05.313Z,971.92
2019-06-15T00:51:05.513Z,971.95
2019-06-15T00:52:05.274Z,971.95
2019-06-15T00:53:05.010Z,971.89
2019-06-15T00:54:05.325Z,971.95
2019-06-15T00:55:05.116Z,971.86
2019-06-15T00:56:04.895Z,972.01
2019-06-15T00:57:04.821Z,971.83
2019-06-15T00:58:05.185Z,972.01
2019-06-15T00:59:05.563Z,971.89
2019-06-15T01:00:04.683Z,971.79
2019-06-15T01:01:05.188Z,971.83
2019-06-15T01:02:05.124Z,971.76
2019-06-15T01:03:04.670Z,971.83
2019-06-15T01:04:05.552Z,971.76
2019-06-15T01:05:04.959Z,971.84
2019-06-15T01:06:04.662Z,971.82
2019-06-15T01:07:05.541Z,971.64
2019-06-15T01:08:05.298Z,971.76
2019-06-15T01:09:05.414Z,971.82
2019-06-15T01:10:05.423Z,971.76
2019-06-15T01:11:05.404Z,971.79
2019-06-15T01:12:04.512Z,971.74
2019-06-15T01:13:04.866Z,971.62
2019-06-15T01:14:05.552Z,971.51
2019-06-15T01:15:04.728Z,971.65
2019-06-15T01:16:05.303Z,971.54
2019-06-15T01:17:04.805Z,971.45
2019-06-15T01:18:04.949Z,971.45
2019-06-15T01:19:05.217Z,971.54
2019-06-15T01:20:04.765Z,971.57
2019-06-15T01:21:05.272Z,971.48
2019-06-15T01:22:05.512Z,971.45
2019-06-15T01:23:04.745Z,971.51
2019-06-15T01:24:04.546Z,971.45
2019-06-15T01:25:06.335Z,971.45
2019-06-15T01:26:05.056Z,971.45
2019-06-15T01:27:05.458Z,971.42
2019-06-15T01:28:05.144Z,971.51
2019-06-15T01:29:05.128Z,971.45
2019-06-15T01:30:04.893Z,971.48
2019-06-15T01:31:05.292Z,971.51
2019-06-15T01:32:05.146Z,971.46
2019-06-15T01:33:05.609Z,971.54
2019-06-15T01:34:04.951Z,971.46
2019-06-15T01:35:04.953Z,971.49
2019-06-15T01:36:05.561Z,971.55
2019-06-15T01:37:04.591Z,971.55
2019-06-15T01:38:04.869Z,971.40
2019-06-15T01:39:05.631Z,971.52
2019-06-15T01:40:04.922Z,971.38
2019-06-15T01:41:05.425Z,971.41
2019-06-15T01:42:04.877Z,971.41
2019-06-15T01:43:05.213Z,971.35
2019-06-15T01:44:04.713Z,971.35
2019-06-15T01:45:05.419Z,971.41
2019-06-15T01:46:04.866Z,971.33
2019-06-15T01:47:05.413Z,971.33
2019-06-15T01:48:04.716Z,971.21
2019-06-15T01:49:04.839Z,971.21
2019-06-15T01:50:05.535Z,971.30
2019-06-15T01:51:05.177Z,971.41
2019-06-15T01:52:05.433Z,971.30
2019-06-15T01:53:04.959Z,971.18
2019-06-15T01:54:05.171Z,971.24
2019-06-15T01:55:21.083Z,971.21
2019-06-15T01:56:05.189Z,971.27
2019-06-15T01:57:04.763Z,971.33
2019-06-15T01:58:05.360Z,971.13
2019-06-15T01:59:05.494Z,971.25
2019-06-15T02:00:04.791Z,971.25
2019-06-15T02:01:05.253Z,971.16
2019-06-15T02:02:15.007Z,971.22
2019-06-15T02:03:05.432Z,971.28
2019-06-15T02:04:04.871Z,971.25
2019-06-15T02:05:05.010Z,971.19
2019-06-15T02:06:05.253Z,971.25
2019-06-15T02:07:05.568Z,971.31
2019-06-15T02:08:05.339Z,971.31
2019-06-15T02:09:05.135Z,971.22
2019-06-15T02:10:05.411Z,971.34
2019-06-15T02:11:05.622Z,971.31
2019-06-15T02:12:05.027Z,971.14
2019-06-15T02:13:04.741Z,971.19
2019-06-15T02:14:05.435Z,971.14
2019-06-15T02:15:05.402Z,971.31
2019-06-15T02:16:05.032Z,971.25
2019-06-15T02:17:04.944Z,971.17
2019-06-15T02:18:05.438Z,971.14
2019-06-15T02:19:05.468Z,971.11
2019-06-15T02:20:04.863Z,971.14
2019-06-15T02:21:05.363Z,971.08
2019-06-15T02:22:04.863Z,971.08
2019-06-15T02:23:04.752Z,970.91
2019-06-15T02:24:04.962Z,971.03
2019-06-15T02:25:05.300Z,970.97
2019-06-15T02:26:05.524Z,971.03
2019-06-15T02:27:05.329Z,971.00
2019-06-15T02:28:05.531Z,971.06
2019-06-15T02:29:04.918Z,970.92
2019-06-15T02:30:05.645Z,970.95
2019-06-15T02:31:04.713Z,970.95
2019-06-15T02:32:05.157Z,970.98
2019-06-15T02:33:05.226Z,970.86
2019-06-15T02:34:04.712Z,970.81
2019-06-15T02:35:05.295Z,970.98
2019-06-15T02:36:04.937Z,970.87
2019-06-15T02:37:04.616Z,970.84
2019-06-15T02:38:04.839Z,970.78
2019-06-15T02:39:05.135Z,970.69
2019-06-15T02:40:05.430Z,970.75
2019-06-15T02:41:04.652Z,970.70
2019-06-15T02:42:05.593Z,970.72
2019-06-15T02:43:05.091Z,970.61
2019-06-15T02:44:09.904Z,970.70
2019-06-15T02:45:04.691Z,970.73
2019-06-15T02:46:05.553Z,970.67
2019-06-15T02:47:04.779Z,970.62
2019-06-15T02:48:05.031Z,970.71
2019-06-15T02:49:05.487Z,970.53
2019-06-15T02:50:04.780Z,970.50
2019-06-15T02:51:05.226Z,970.56
2019-06-15T02:52:05.444Z,970.62
2019-06-15T02:53:04.951Z,970.62
2019-06-15T02:54:05.307Z,970.68
2019-06-15T02:55:04.928Z,970.77
2019-06-15T02:56:05.367Z,970.71
2019-06-15T02:57:05.034Z,970.68
2019-06-15T02:58:05.399Z,970.65
2019-06-15T02:59:05.247Z,970.53
2019-06-15T03:00:04.849Z,970.51
2019-06-15T03:01:05.052Z,970.40
2019-06-15T03:02:05.563Z,970.48
2019-06-15T03:03:04.739Z,970.37
2019-06-15T03:04:05.343Z,970.54
2019-06-15T03:05:05.387Z,970.54
2019-06-15T03:06:05.139Z,970.62
2019-06-15T03:07:04.699Z,970.56
2019-06-15T03:08:04.748Z,970.56
2019-06-15T03:09:05.392Z,970.51
2019-06-15T03:10:10.085Z,970.45
2019-06-15T03:11:04.783Z,970.45
2019-06-15T03:12:05.480Z,970.40
2019-06-15T03:13:04.779Z,970.34
2019-06-15T03:14:05.327Z,970.29
2019-06-15T03:15:05.388Z,970.34
2019-06-15T03:16:04.838Z,970.23
2019-06-15T03:17:04.856Z,970.20
2019-06-15T03:18:05.061Z,970.20
2019-06-15T03:19:05.531Z,970.14
2019-06-15T03:20:05.303Z,970.28
2019-06-15T03:21:05.501Z,970.34
2019-06-15T03:22:06.921Z,970.40
2019-06-15T03:23:04.696Z,970.53
2019-06-15T03:24:05.006Z,970.59
2019-06-15T03:25:05.009Z,970.67
2019-06-15T03:26:06.523Z,970.53
2019-06-15T03:27:05.431Z,970.50
2019-06-15T03:28:05.061Z,970.55
2019-06-15T03:29:05.423Z,970.58
2019-06-15T03:30:05.177Z,970.49
2019-06-15T03:31:05.533Z,970.49
2019-06-15T03:32:05.584Z,970.46
2019-06-15T03:33:05.270Z,970.49
2019-06-15T03:34:04.709Z,970.39
2019-06-15T03:35:04.903Z,970.46
2019-06-15T03:36:04.857Z,970.58
2019-06-15T03:37:05.300Z,970.67
2019-06-15T03:38:04.754Z,970.58
2019-06-15T03:39:04.942Z,970.64
2019-06-15T03:40:05.269Z,970.52
2019-06-15T03:41:05.583Z,970.49
2019-06-15T03:42:05.437Z,970.43
2019-06-15T03:43:05.626Z,970.41
2019-06-15T03:44:10.189Z,970.35
2019-06-15T03:45:04.752Z,970.49
2019-06-15T03:46:05.170Z,970.32
2019-06-15T03:47:05.295Z,970.52
2019-06-15T03:48:04.861Z,970.38
2019-06-15T03:49:05.493Z,970.48
2019-06-15T03:50:05.533Z,970.38
2019-06-15T03:51:05.194Z,970.23
2019-06-15T03:52:05.025Z,970.23
2019-06-15T03:53:05.053Z,970.14
2019-06-15T03:54:04.880Z,970.20
2019-06-15T03:55:04.989Z,970.40
2019-06-15T03:56:21.802Z,970.34
2019-06-15T03:57:05.330Z,970.34
2019-06-15T03:58:04.888Z,970.31
2019-06-15T03:59:05.549Z,970.33
2019-06-15T04:00:04.843Z,970.27
2019-06-15T04:01:05.588Z,970.24
2019-06-15T04:02:05.236Z,970.36
2019-06-15T04:03:05.115Z,970.39
2019-06-15T04:04:05.258Z,970.38
2019-06-15T04:05:05.130Z,970.18
2019-06-15T04:06:04.921Z,970.32
2019-06-15T04:07:05.430Z,970.26
2019-06-15T04:08:04.640Z,970.20
2019-06-15T04:09:05.269Z,970.20
2019-06-15T04:10:05.482Z,970.34
2019-06-15T04:11:04.863Z,970.28
2019-06-15T04:12:05.238Z,970.45
2019-06-15T04:13:05.090Z,970.25
2019-06-15T04:14:05.488Z,970.22
2019-06-15T04:15:05.211Z,970.31
2019-06-15T04:16:04.706Z,970.22
2019-06-15T04:17:05.180Z,970.22
2019-06-15T04:18:05.396Z,970.27
2019-06-15T04:19:05.419Z,970.21
2019-06-15T04:20:04.714Z,970.21
2019-06-15T04:21:05.039Z,970.21
2019-06-15T04:22:05.268Z,970.18
2019-06-15T04:23:05.417Z,970.38
2019-06-15T04:24:05.246Z,970.29
2019-06-15T04:25:05.264Z,970.26
2019-06-15T04:26:05.006Z,970.29
2019-06-15T04:27:05.223Z,970.38
2019-06-15T04:28:05.389Z,970.32
2019-06-15T04:29:04.928Z,970.35
2019-06-15T04:30:05.373Z,970.38
2019-06-15T04:31:04.802Z,970.40
2019-06-15T04:32:04.955Z,970.40
2019-06-15T04:33:04.992Z,970.20
2019-06-15T04:34:05.516Z,970.42
2019-06-15T04:35:04.848Z,970.42
2019-06-15T04:36:05.296Z,970.31
2019-06-15T04:37:04.910Z,970.44
2019-06-15T04:38:05.369Z,970.39
2019-06-15T04:39:04.829Z,970.44
2019-06-15T04:40:05.115Z,970.42
2019-06-15T04:41:05.379Z,970.42
2019-06-15T04:42:04.847Z,970.30
2019-06-15T04:43:05.160Z,970.42
2019-06-15T04:44:09.611Z,970.36
2019-06-15T04:45:05.451Z,970.44
2019-06-15T04:46:05.525Z,970.39
2019-06-15T04:47:04.754Z,970.39
2019-06-15T04:48:05.459Z,970.36
2019-06-15T04:49:04.686Z,970.36
2019-06-15T04:50:05.788Z,970.24
2019-06-15T04:51:04.950Z,970.36
2019-06-15T04:52:05.356Z,970.30
2019-06-15T04:53:04.931Z,970.41
2019-06-15T04:54:05.810Z,970.27
2019-06-15T04:55:04.872Z,970.24
2019-06-15T04:56:05.206Z,970.32
2019-06-15T04:57:05.026Z,970.32
2019-06-15T04:58:05.369Z,970.41
2019-06-15T04:59:04.868Z,970.29
2019-06-15T05:00:05.606Z,970.29
2019-06-15T05:01:04.998Z,970.32
2019-06-15T05:02:05.222Z,970.29
2019-06-15T05:03:04.799Z,970.38
2019-06-15T05:04:10.435Z,970.48
2019-06-15T05:05:05.017Z,970.42
2019-06-15T05:06:05.384Z,970.42
2019-06-15T05:07:05.631Z,970.40
2019-06-15T05:08:05.443Z,970.51
2019-06-15T05:09:04.827Z,970.40
2019-06-15T05:10:05.204Z,970.23
2019-06-15T05:11:04.690Z,970.34
2019-06-15T05:12:05.196Z,970.47
2019-06-15T05:13:05.695Z,970.31
2019-06-15T05:14:04.894Z,970.34
2019-06-15T05:15:04.901Z,970.36
2019-06-15T05:16:05.298Z,970.31
2019-06-15T05:17:05.181Z,970.33
2019-06-15T05:18:04.851Z,970.44
2019-06-15T05:19:05.148Z,970.44
2019-06-15T05:20:05.805Z,970.36
2019-06-15T05:21:04.886Z,970.36
2019-06-15T05:22:05.279Z,970.27
2019-06-15T05:23:04.846Z,970.41
2019-06-15T05:24:08.927Z,970.41
2019-06-15T05:25:04.714Z,970.46
2019-06-15T05:26:04.978Z,970.23
2019-06-15T05:27:07.055Z,970.35
2019-06-15T05:28:04.839Z,970.43
2019-06-15T05:29:05.266Z,970.41
2019-06-15T05:30:05.401Z,970.29
2019-06-15T05:31:05.601Z,970.32
2019-06-15T05:32:04.837Z,970.35
2019-06-15T05:33:05.098Z,970.29
2019-06-15T05:34:05.095Z,970.40
2019-06-15T05:35:05.032Z,970.34
2019-06-15T05:36:05.009Z,970.39
2019-06-15T05:37:05.439Z,970.39
2019-06-15T05:38:04.939Z,970.38
2019-06-15T05:39:04.867Z,970.35
2019-06-15T05:40:04.834Z,970.34
2019-06-15T05:41:05.313Z,970.44
2019-06-15T05:42:05.382Z,970.42
2019-06-15T05:43:05.044Z,970.47
2019-06-15T05:44:05.467Z,970.38
2019-06-15T05:45:05.143Z,970.45
2019-06-15T05:46:04.789Z,970.46
2019-06-15T05:47:04.546Z,970.45
2019-06-15T05:48:05.440Z,970.49
2019-06-15T05:49:05.414Z,970.45
2019-06-15T05:50:05.397Z,970.42
2019-06-15T05:51:05.019Z,970.38
2019-06-15T05:52:05.500Z,970.44
2019-06-15T05:53:05.485Z,970.41
2019-06-15T05:54:04.599Z,970.37
2019-06-15T05:55:05.139Z,970.36
2019-06-15T05:56:05.706Z,970.40
2019-06-15T05:57:18.372Z,970.47
2019-06-15T05:58:04.871Z,970.43
2019-06-15T05:59:05.068Z,970.28
2019-06-15T06:00:05.322Z,970.36
2019-06-15T06:01:09.954Z,970.35
2019-06-15T06:02:05.132Z,970.51
2019-06-15T06:03:05.538Z,970.44
2019-06-15T06:04:04.694Z,970.43
2019-06-15T06:05:05.369Z,970.51
2019-06-15T06:06:05.248Z,970.51
2019-06-15T06:07:05.413Z,970.56
2019-06-15T06:08:05.148Z,970.70
2019-06-15T06:09:04.702Z,970.63
2019-06-15T06:10:06.373Z,970.72
2019-06-15T06:11:05.498Z,970.71
2019-06-15T06:12:04.809Z,970.82
2019-06-15T06:13:05.321Z,970.81
2019-06-15T06:14:05.534Z,970.81
2019-06-15T06:15:04.709Z,970.77
2019-06-15T06:16:04.859Z,970.92
2019-06-15T06:17:05.809Z,970.79
2019-06-15T06:18:04.901Z,970.88
2019-06-15T06:19:04.754Z,970.90
2019-06-15T06:20:04.979Z,970.84
2019-06-15T06:21:04.734Z,970.89
2019-06-15T06:22:05.566Z,970.92
2019-06-15T06:23:05.195Z,971.00
2019-06-15T06:24:04.883Z,970.85
2019-06-15T06:25:04.899Z,970.85
2019-06-15T06:26:04.925Z,970.90
2019-06-15T06:27:04.756Z,970.87
2019-06-15T06:28:05.172Z,971.04
2019-06-15T06:29:04.599Z,970.83
2019-06-15T06:30:05.266Z,970.88
2019-06-15T06:31:04.839Z,970.88
2019-06-15T06:32:04.918Z,970.88
2019-06-15T06:33:04.752Z,971.21
2019-06-15T06:34:05.165Z,971.00
2019-06-15T06:35:04.799Z,971.12
2019-06-15T06:36:06.698Z,971.06
2019-06-15T06:37:05.539Z,971.07
2019-06-15T06:38:05.344Z,971.13
2019-06-15T06:39:04.721Z,971.08
2019-06-15T06:40:05.146Z,971.02
2019-06-15T06:41:04.963Z,971.08
2019-06-15T06:42:05.381Z,971.08
2019-06-15T06:43:05.502Z,971.14
2019-06-15T06:44:10.677Z,971.14
2019-06-15T06:45:05.368Z,971.11
2019-06-15T06:46:05.158Z,971.17
2019-06-15T06:47:05.397Z,971.20
2019-06-15T06:48:04.940Z,971.05
2019-06-15T06:49:05.001Z,971.13
2019-06-15T06:50:04.695Z,971.07
2019-06-15T06:51:05.139Z,970.98
2019-06-15T06:52:04.635Z,970.95
2019-06-15T06:53:05.692Z,971.06
2019-06-15T06:54:04.624Z,971.03
2019-06-15T06:55:05.072Z,971.08
2019-06-15T06:56:05.730Z,971.11
2019-06-15T06:57:04.886Z,971.17
2019-06-15T06:58:05.194Z,971.13
2019-06-15T06:59:05.716Z,971.16
2019-06-15T07:00:04.951Z,971.13
2019-06-15T07:01:05.765Z,971.15
2019-06-15T07:02:04.795Z,971.06
2019-06-15T07:03:04.627Z,971.21
2019-06-15T07:04:05.445Z,971.17
2019-06-15T07:05:05.316Z,971.17
2019-06-15T07:06:04.785Z,971.26
2019-06-15T07:07:05.660Z,971.22
2019-06-15T07:08:05.112Z,971.36
2019-06-15T07:09:09.640Z,971.27
2019-06-15T07:10:05.696Z,971.32
2019-06-15T07:11:04.964Z,971.23
2019-06-15T07:12:05.524Z,971.34
2019-06-15T07:13:04.609Z,971.31
2019-06-15T07:14:04.873Z,971.27
2019-06-15T07:15:05.347Z,971.42
2019-06-15T07:16:04.766Z,971.41
2019-06-15T07:17:05.627Z,971.35
2019-06-15T07:18:05.446Z,971.41
2019-06-15T07:19:04.974Z,971.37
2019-06-15T07:20:05.213Z,971.37
2019-06-15T07:21:05.694Z,971.43
2019-06-15T07:22:05.354Z,971.51
2019-06-15T07:23:04.776Z,971.57
2019-06-15T07:24:04.997Z,971.51
2019-06-15T07:25:04.891Z,971.54
2019-06-15T07:26:05.581Z,971.56
2019-06-15T07:27:04.679Z,971.44
2019-06-15T07:28:08.782Z,971.65
2019-06-15T07:29:04.666Z,971.53
2019-06-15T07:30:04.889Z,971.68
2019-06-15T07:31:05.340Z,971.53
2019-06-15T07:32:04.718Z,971.63
2019-06-15T07:33:04.963Z,971.66
2019-06-15T07:34:04.863Z,971.67
2019-06-15T07:35:05.753Z,971.61
2019-06-15T07:36:05.403Z,971.71
2019-06-15T07:37:05.376Z,971.63
2019-06-15T07:38:05.095Z,971.66
2019-06-15T07:39:05.579Z,971.63
2019-06-15T07:40:04.742Z,971.58
2019-06-15T07:41:04.946Z,971.70
2019-06-15T07:42:04.663Z,971.68
2019-06-15T07:43:05.712Z,971.71
2019-06-15T07:44:10.526Z,971.60
2019-06-15T07:45:05.231Z,971.57
2019-06-15T07:46:05.019Z,971.69
2019-06-15T07:47:05.277Z,971.63
2019-06-15T07:48:05.642Z,971.72
2019-06-15T07:49:05.475Z,971.72
2019-06-15T07:50:05.219Z,971.78
2019-06-15T07:51:05.662Z,971.83
2019-06-15T07:52:04.825Z,971.83
2019-06-15T07:53:04.669Z,971.77
2019-06-15T07:54:05.335Z,971.79
2019-06-15T07:55:04.938Z,971.90
2019-06-15T07:56:05.701Z,971.90
2019-06-15T07:57:05.523Z,971.98
2019-06-15T07:58:04.882Z,971.92
2019-06-15T07:59:04.802Z,971.89
2019-06-15T08:00:04.891Z,971.98
2019-06-15T08:01:05.678Z,971.98
2019-06-15T08:02:04.960Z,971.95
2019-06-15T08:03:05.188Z,972.13
2019-06-15T08:04:10.550Z,972.10
2019-06-15T08:05:05.381Z,971.98
2019-06-15T08:06:05.450Z,972.04
2019-06-15T08:07:05.510Z,971.98
2019-06-15T08:08:05.022Z,972.18
2019-06-15T08:09:05.255Z,972.07
2019-06-15T08:10:05.215Z,972.21
2019-06-15T08:11:05.595Z,972.03
2019-06-15T08:12:05.037Z,972.12
2019-06-15T08:13:04.902Z,972.15
2019-06-15T08:14:05.412Z,972.15
2019-06-15T08:15:04.682Z,972.12
2019-06-15T08:16:05.832Z,972.14
2019-06-15T08:17:05.180Z,972.23
2019-06-15T08:18:05.330Z,972.14
2019-06-15T08:19:04.902Z,972.08
2019-06-15T08:20:05.644Z,972.08
2019-06-15T08:21:04.937Z,972.02
2019-06-15T08:22:04.798Z,972.01
2019-06-15T08:23:05.632Z,972.13
2019-06-15T08:24:05.404Z,972.13
2019-06-15T08:25:05.535Z,972.13
2019-06-15T08:26:04.833Z,972.10
2019-06-15T08:27:05.510Z,972.10
2019-06-15T08:28:05.016Z,972.22
2019-06-15T08:29:04.907Z,972.01
2019-06-15T08:30:04.920Z,972.13
2019-06-15T08:31:05.368Z,972.13
2019-06-15T08:32:05.270Z,972.16
2019-06-15T08:33:05.191Z,972.13
2019-06-15T08:34:05.587Z,972.01
2019-06-15T08:35:04.925Z,972.13
2019-06-15T08:36:05.603Z,972.10
2019-06-15T08:37:04.933Z,972.13
2019-06-15T08:38:04.941Z,972.10
2019-06-15T08:39:04.862Z,972.04
2019-06-15T08:40:05.287Z,972.07
2019-06-15T08:41:05.004Z,972.06
2019-06-15T08:42:05.271Z,972.00
2019-06-15T08:43:05.034Z,972.12
2019-06-15T08:44:15.455Z,972.18
2019-06-15T08:45:04.964Z,972.00
2019-06-15T08:46:05.541Z,972.09
2019-06-15T08:47:05.220Z,972.12
2019-06-15T08:48:04.601Z,972.12
2019-06-15T08:49:05.749Z,972.09
2019-06-15T08:50:05.398Z,972.12
2019-06-15T08:51:05.267Z,972.23
2019-06-15T08:52:05.303Z,972.26
2019-06-15T08:53:04.972Z,972.20
2019-06-15T08:54:05.164Z,972.26
2019-06-15T08:55:05.598Z,972.29
2019-06-15T08:56:05.244Z,972.35
2019-06-15T08:57:04.927Z,972.20
2019-06-15T08:58:04.919Z,972.32
2019-06-15T08:59:04.757Z,972.20
2019-06-15T09:00:04.674Z,972.28
2019-06-15T09:01:04.795Z,972.25
2019-06-15T09:02:05.115Z,972.28
2019-06-15T09:03:05.436Z,972.31
2019-06-15T09:04:05.659Z,972.25
2019-06-15T09:05:05.048Z,972.25
2019-06-15T09:06:05.260Z,972.22
2019-06-15T09:07:04.955Z,972.22
2019-06-15T09:08:05.150Z,972.25
2019-06-15T09:09:05.655Z,972.34
2019-06-15T09:10:04.663Z,972.37
2019-06-15T09:11:05.510Z,972.28
2019-06-15T09:12:04.973Z,972.25
2019-06-15T09:13:05.481Z,972.37
2019-06-15T09:14:05.687Z,972.22
2019-06-15T09:15:05.199Z,972.37
2019-06-15T09:16:05.677Z,972.37
2019-06-15T09:17:05.007Z,972.34
2019-06-15T09:18:05.447Z,972.49
2019-06-15T09:19:04.972Z,972.40
2019-06-15T09:20:05.727Z,972.43
2019-06-15T09:21:05.403Z,972.37
2019-06-15T09:22:05.336Z,972.43
2019-06-15T09:23:05.514Z,972.43
2019-06-15T09:24:04.804Z,972.40
2019-06-15T09:25:04.880Z,972.49
2019-06-15T09:26:05.158Z,972.49
2019-06-15T09:27:04.917Z,972.57
2019-06-15T09:28:05.380Z,972.63
2019-06-15T09:29:11.983Z,972.63
2019-06-15T09:30:04.932Z,972.49
2019-06-15T09:31:05.466Z,972.66
2019-06-15T09:32:04.714Z,972.60
2019-06-15T09:33:05.356Z,972.63
2019-06-15T09:34:19.485Z,972.57
2019-06-15T09:35:05.353Z,972.66
2019-06-15T09:36:04.962Z,972.57
2019-06-15T09:37:04.733Z,972.54
2019-06-15T09:38:05.197Z,972.49
2019-06-15T09:39:05.705Z,972.63
2019-06-15T09:40:04.663Z,972.69
2019-06-15T09:41:05.180Z,972.75
2019-06-15T09:42:04.667Z,972.60
2019-06-15T09:43:04.820Z,972.78
2019-06-15T09:44:10.260Z,972.81
2019-06-15T09:45:05.034Z,972.75
2019-06-15T09:46:05.062Z,972.69
2019-06-15T09:47:05.541Z,972.69
2019-06-15T09:48:05.209Z,972.78
2019-06-15T09:49:05.383Z,972.72
2019-06-15T09:50:04.527Z,972.75
2019-06-15T09:51:05.059Z,972.75
2019-06-15T09:52:05.415Z,972.87
2019-06-15T09:53:05.058Z,972.85
2019-06-15T09:54:05.617Z,972.82
2019-06-15T09:55:05.622Z,972.82
2019-06-15T09:56:04.766Z,972.97
2019-06-15T09:57:05.034Z,972.91
2019-06-15T09:58:05.537Z,972.88
2019-06-15T09:59:05.051Z,972.97
2019-06-15T10:00:05.490Z,973.12
2019-06-15T10:01:04.893Z,973.12
2019-06-15T10:02:05.126Z,973.09
2019-06-15T10:03:05.836Z,973.09
2019-06-15T10:04:05.020Z,972.97
2019-06-15T10:05:05.492Z,973.09
2019-06-15T10:06:06.059Z,973.07
2019-06-15T10:07:04.911Z,973.12
2019-06-15T10:08:05.365Z,973.04
2019-06-15T10:09:05.130Z,973.15
2019-06-15T10:10:05.434Z,973.07
2019-06-15T10:11:05.329Z,973.15
2019-06-15T10:12:05.563Z,973.21
2019-06-15T10:13:05.179Z,973.18
2019-06-15T10:14:04.808Z,973.12
2019-06-15T10:15:05.695Z,973.15
2019-06-15T10:16:05.473Z,973.21
2019-06-15T10:17:04.922Z,973.33
2019-06-15T10:18:04.906Z,973.24
2019-06-15T10:19:05.705Z,973.25
2019-06-15T10:20:04.840Z,973.34
2019-06-15T10:21:05.283Z,973.34
2019-06-15T10:22:05.700Z,973.37
2019-06-15T10:23:05.863Z,973.28
2019-06-15T10:24:05.005Z,973.34
2019-06-15T10:25:05.233Z,973.34
2019-06-15T10:26:04.939Z,973.25
2019-06-15T10:27:05.405Z,973.43
2019-06-15T10:28:05.535Z,973.40
2019-06-15T10:29:05.613Z,973.40
2019-06-15T10:30:04.915Z,973.40
2019-06-15T10:31:04.890Z,973.49
2019-06-15T10:32:05.593Z,973.40
2019-06-15T10:33:04.715Z,973.46
2019-06-15T10:34:04.952Z,973.52
2019-06-15T10:35:05.408Z,973.52
2019-06-15T10:36:04.986Z,973.57
2019-06-15T10:37:04.798Z,973.57
2019-06-15T10:38:05.081Z,973.54
2019-06-15T10:39:05.323Z,973.66
2019-06-15T10:40:04.832Z,973.66
2019-06-15T10:41:05.061Z,973.72
2019-06-15T10:42:05.250Z,973.75
2019-06-15T10:43:05.405Z,973.69
2019-06-15T10:44:04.955Z,973.75
2019-06-15T10:45:05.530Z,973.75
2019-06-15T10:46:04.828Z,973.60
2019-06-15T10:47:05.527Z,973.63
2019-06-15T10:48:05.444Z,973.83
2019-06-15T10:49:04.700Z,973.80
2019-06-15T10:50:05.063Z,973.69
2019-06-15T10:51:10.594Z,973.81
2019-06-15T10:52:05.168Z,973.78
2019-06-15T10:53:05.622Z,973.78
2019-06-15T10:54:05.017Z,973.90
2019-06-15T10:55:05.812Z,973.96
2019-06-15T10:56:05.140Z,973.87
2019-06-15T10:57:05.303Z,973.87
2019-06-15T10:58:05.751Z,973.96
2019-06-15T10:59:05.977Z,973.96
2019-06-15T11:00:05.391Z,973.93
2019-06-15T11:01:05.407Z,973.84
2019-06-15T11:02:05.079Z,973.87
2019-06-15T11:03:05.647Z,973.90
2019-06-15T11:04:05.273Z,973.93
2019-06-15T11:05:05.618Z,973.88
2019-06-15T11:06:05.163Z,974.00
2019-06-15T11:07:05.357Z,974.06
2019-06-15T11:08:05.980Z,974.03
2019-06-15T11:09:05.456Z,974.12
2019-06-15T11:10:04.785Z,974.15
2019-06-15T11:11:05.933Z,974.12
2019-06-15T11:12:05.465Z,974.12
2019-06-15T11:13:05.525Z,974.12
2019-06-15T11:14:04.936Z,974.15
2019-06-15T11:15:05.857Z,974.18
2019-06-15T11:16:05.750Z,974.24
2019-06-15T11:17:05.282Z,974.15
2019-06-15T11:18:06.062Z,974.23
2019-06-15T11:19:04.606Z,974.06
2019-06-15T11:20:05.775Z,974.32
2019-06-15T11:21:05.265Z,974.17
2019-06-15T11:22:05.798Z,974.26
2019-06-15T11:23:05.239Z,974.17
2019-06-15T11:24:05.476Z,974.23
2019-06-15T11:25:05.654Z,974.17
2019-06-15T11:26:05.148Z,974.26
2019-06-15T11:27:05.975Z,974.25
2019-06-15T11:28:06.178Z,974.10
2019-06-15T11:29:06.088Z,974.25
2019-06-15T11:30:14.796Z,974.31
2019-06-15T11:31:04.741Z,974.28
2019-06-15T11:32:04.925Z,974.22
2019-06-15T11:33:05.719Z,974.31
2019-06-15T11:34:05.065Z,974.28
2019-06-15T11:35:05.902Z,974.31
2019-06-15T11:36:05.915Z,974.19
2019-06-15T11:37:05.519Z,974.23
2019-06-15T11:38:05.856Z,974.35
2019-06-15T11:39:06.029Z,974.40
2019-06-15T11:40:05.752Z,974.44
2019-06-15T11:41:05.568Z,974.43
2019-06-15T11:42:05.239Z,974.50
2019-06-15T11:43:04.854Z,974.53
2019-06-15T11:44:10.085Z,974.50
2019-06-15T11:45:05.156Z,974.50
2019-06-15T11:46:04.930Z,974.38
2019-06-15T11:47:05.193Z,974.56
2019-06-15T11:48:05.772Z,974.59
2019-06-15T11:49:05.271Z,974.57
2019-06-15T11:50:05.799Z,974.63
2019-06-15T11:51:04.942Z,974.54
2019-06-15T11:52:05.278Z,974.69
2019-06-15T11:53:05.266Z,974.69
2019-06-15T11:54:04.714Z,974.69
2019-06-15T11:55:05.261Z,974.63
2019-06-15T11:56:04.704Z,974.66
2019-06-15T11:57:05.520Z,974.81
2019-06-15T11:58:05.011Z,974.72
2019-06-15T11:59:05.090Z,974.66
2019-06-15T12:00:05.351Z,974.72
2019-06-15T12:01:05.304Z,974.69
2019-06-15T12:02:05.136Z,974.72
2019-06-15T12:03:05.520Z,974.84
2019-06-15T12:04:04.853Z,974.78
2019-06-15T12:05:04.935Z,974.72
2019-06-15T12:06:05.461Z,974.78
2019-06-15T12:07:06.004Z,974.69
2019-06-15T12:08:05.423Z,974.80
2019-06-15T12:09:04.689Z,974.77
2019-06-15T12:10:04.992Z,974.83
2019-06-15T12:11:05.610Z,974.76
2019-06-15T12:12:04.846Z,974.76
2019-06-15T12:13:05.759Z,974.76
2019-06-15T12:14:04.956Z,974.82
2019-06-15T12:15:05.564Z,974.79
2019-06-15T12:16:05.278Z,974.82
2019-06-15T12:17:05.991Z,974.82
2019-06-15T12:18:05.552Z,974.85
2019-06-15T12:19:05.634Z,974.77
2019-06-15T12:20:05.541Z,974.79
2019-06-15T12:21:05.148Z,974.79
2019-06-15T12:22:05.359Z,974.85
2019-06-15T12:23:05.237Z,974.82
2019-06-15T12:24:05.658Z,974.76
2019-06-15T12:25:04.778Z,974.82
2019-06-15T12:26:04.970Z,974.88
2019-06-15T12:27:05.170Z,974.85
2019-06-15T12:28:04.930Z,974.76